createdAt,value
2018-11-10T00:00:20.993Z,8.70
2018-11-10T00:02:51.155Z,8.60
2018-11-10T00:05:26.667Z,8.60
2018-11-10T00:07:55.603Z,8.50
2018-11-10T00:10:24.776Z,8.50
2018-11-10T00:12:53.721Z,8.60
2018-11-10T00:15:22.627Z,8.60
2018-11-10T00:17:51.417Z,8.60
2018-11-10T00:20:20.300Z,8.50
2018-11-10T00:22:49.939Z,8.40
2018-11-10T00:25:18.868Z,8.40
2018-11-10T00:27:47.706Z,8.30
2018-11-10T00:30:17.706Z,8.20
2018-11-10T00:32:47.768Z,8.20
2018-11-10T00:35:17.677Z,8.10
2018-11-10T00:37:46.548Z,8.00
2018-11-10T00:40:16.495Z,8.00
2018-11-10T00:42:45.871Z,7.90
2018-11-10T00:45:14.764Z,7.90
2018-11-10T00:47:44.116Z,7.80
2018-11-10T00:50:12.950Z,7.80
2018-11-10T00:52:41.955Z,7.70
2018-11-10T00:55:10.833Z,7.70
2018-11-10T00:57:39.620Z,7.60
2018-11-10T01:00:10.368Z,7.60
2018-11-10T01:02:39.160Z,7.60
2018-11-10T01:05:09.100Z,7.50
2018-11-10T01:07:38.053Z,7.50
2018-11-10T01:10:08.922Z,7.50
2018-11-10T01:12:37.825Z,7.40
2018-11-10T01:15:08.408Z,7.40
2018-11-10T01:17:37.242Z,7.30
2018-11-10T01:20:06.886Z,7.30
2018-11-10T01:22:35.725Z,7.40
2018-11-10T01:25:05.569Z,7.40
2018-11-10T01:27:34.684Z,7.30
2018-11-10T01:30:05.053Z,7.30
2018-11-10T01:32:34.068Z,7.30
2018-11-10T01:35:02.993Z,7.20
2018-11-10T01:37:31.789Z,7.20
2018-11-10T01:40:00.745Z,7.10
2018-11-10T01:42:29.613Z,7.10
2018-11-10T01:44:58.420Z,7.10
2018-11-10T01:47:27.375Z,7.10
2018-11-10T01:49:56.182Z,7.00
2018-11-10T01:52:25.013Z,7.00
2018-11-10T01:54:53.883Z,6.90
2018-11-10T01:57:22.902Z,6.80
2018-11-10T01:59:51.706Z,6.80
2018-11-10T02:02:20.479Z,6.80
2018-11-10T02:04:49.471Z,6.80
2018-11-10T02:07:18.469Z,6.80
2018-11-10T02:09:47.330Z,6.80
2018-11-10T02:12:16.130Z,6.70
2018-11-10T02:14:44.970Z,6.70
2018-11-10T02:17:13.812Z,6.70
2018-11-10T02:19:42.770Z,6.80
2018-11-10T02:22:11.684Z,6.80
2018-11-10T02:24:40.496Z,6.80
2018-11-10T02:27:14.647Z,6.80
2018-11-10T02:29:43.564Z,6.80
2018-11-10T02:32:12.490Z,6.80
2018-11-10T02:34:41.429Z,6.80
2018-11-10T02:37:10.652Z,7.00
2018-11-10T02:39:39.592Z,7.30
2018-11-10T02:42:08.369Z,7.50
2018-11-10T02:44:37.272Z,7.70
2018-11-10T02:47:06.051Z,7.80
2018-11-10T02:49:35.043Z,7.90
2018-11-10T02:52:04.008Z,8.10
2018-11-10T02:54:32.784Z,8.20
2018-11-10T02:57:01.689Z,8.40
2018-11-10T02:59:30.688Z,8.50
2018-11-10T03:01:59.614Z,8.60
2018-11-10T03:04:28.449Z,8.70
2018-11-10T03:06:57.388Z,8.80
2018-11-10T03:09:26.222Z,8.80
2018-11-10T03:11:55.119Z,8.70
2018-11-10T03:14:24.892Z,8.70
2018-11-10T03:16:53.898Z,8.70
2018-11-10T03:19:22.775Z,8.70
2018-11-10T03:21:51.701Z,8.70
2018-11-10T03:24:20.480Z,8.70
2018-11-10T03:26:49.331Z,8.70
2018-11-10T03:29:18.370Z,8.80
2018-11-10T03:31:47.246Z,8.80
2018-11-10T03:34:16.183Z,8.90
2018-11-10T03:36:44.980Z,8.90
2018-11-10T03:39:13.920Z,8.90
2018-11-10T03:41:42.819Z,9.00
2018-11-10T03:44:11.793Z,8.90
2018-11-10T03:46:40.895Z,8.90
2018-11-10T03:49:09.790Z,8.80
2018-11-10T03:51:38.801Z,8.80
2018-11-10T03:54:08.054Z,8.80
2018-11-10T03:56:36.834Z,8.70
2018-11-10T03:59:06.340Z,8.70
2018-11-10T04:01:35.317Z,8.70
2018-11-10T04:04:04.247Z,8.70
2018-11-10T04:06:33.105Z,8.60
2018-11-10T04:09:01.966Z,8.70
2018-11-10T04:11:30.782Z,8.60
2018-11-10T04:13:59.645Z,8.70
2018-11-10T04:16:28.703Z,8.70
2018-11-10T04:18:57.484Z,8.70
2018-11-10T04:21:26.400Z,8.70
2018-11-10T04:23:55.334Z,8.70
2018-11-10T04:26:24.326Z,8.80
2018-11-10T04:28:53.122Z,8.90
2018-11-10T04:31:22.073Z,8.90
2018-11-10T04:33:50.887Z,9.00
2018-11-10T04:36:19.838Z,9.00
2018-11-10T04:38:49.335Z,9.00
2018-11-10T04:41:18.418Z,9.10
2018-11-10T04:43:47.368Z,9.10
2018-11-10T04:46:16.656Z,9.10
2018-11-10T04:48:45.513Z,9.20
2018-11-10T04:51:14.565Z,9.20
2018-11-10T04:53:43.414Z,9.20
2018-11-10T04:56:12.462Z,9.30
2018-11-10T04:58:41.265Z,9.30
2018-11-10T05:01:11.323Z,9.30
2018-11-10T05:03:40.367Z,9.40
2018-11-10T05:06:09.163Z,9.60
2018-11-10T05:08:37.988Z,9.70
2018-11-10T05:11:07.546Z,9.70
2018-11-10T05:13:37.148Z,9.70
2018-11-10T05:16:05.984Z,9.80
2018-11-10T05:18:35.392Z,9.90
2018-11-10T05:21:04.349Z,10.00
2018-11-10T05:23:33.332Z,10.00
2018-11-10T05:26:02.162Z,9.90
2018-11-10T05:28:31.051Z,9.80
2018-11-10T05:31:00.089Z,9.80
2018-11-10T05:33:31.469Z,9.80
2018-11-10T05:36:00.395Z,9.70
2018-11-10T05:38:29.652Z,9.70
2018-11-10T05:40:58.517Z,9.80
2018-11-10T05:43:28.505Z,9.80
2018-11-10T05:45:57.555Z,9.70
2018-11-10T05:48:26.553Z,9.80
2018-11-10T05:50:56.153Z,9.70
2018-11-10T05:53:25.160Z,9.70
2018-11-10T05:55:53.999Z,9.70
2018-11-10T05:58:22.894Z,9.80
2018-11-10T06:00:52.624Z,9.80
2018-11-10T06:03:22.257Z,9.80
2018-11-10T06:05:51.239Z,9.80
2018-11-10T06:08:20.604Z,9.80
2018-11-10T06:10:49.637Z,9.80
2018-11-10T06:13:18.438Z,9.70
2018-11-10T06:15:47.849Z,9.70
2018-11-10T06:18:16.822Z,9.70
2018-11-10T06:20:45.818Z,9.70
2018-11-10T06:23:14.639Z,9.70
2018-11-10T06:25:43.476Z,9.60
2018-11-10T06:28:12.508Z,9.60
2018-11-10T06:30:41.580Z,9.60
2018-11-10T06:33:10.403Z,9.60
2018-11-10T06:35:40.101Z,9.60
2018-11-10T06:38:09.551Z,9.60
2018-11-10T06:40:38.349Z,9.70
2018-11-10T06:43:07.173Z,9.70
2018-11-10T06:45:36.141Z,9.70
2018-11-10T06:48:05.137Z,9.80
2018-11-10T06:50:34.071Z,9.80
2018-11-10T06:53:03.195Z,9.80
2018-11-10T06:55:32.127Z,9.90
2018-11-10T06:58:01.164Z,9.90
2018-11-10T07:00:30.327Z,9.90
2018-11-10T07:02:59.248Z,10.00
2018-11-10T07:05:29.132Z,10.10
2018-11-10T07:07:58.066Z,10.10
2018-11-10T07:10:27.434Z,10.10
2018-11-10T07:12:56.344Z,10.10
2018-11-10T07:15:25.322Z,10.20
2018-11-10T07:17:54.242Z,10.20
2018-11-10T07:20:23.051Z,10.20
2018-11-10T07:22:51.891Z,10.20
2018-11-10T07:25:20.955Z,10.20
2018-11-10T07:27:49.799Z,10.30
2018-11-10T07:30:18.576Z,10.30
2018-11-10T07:32:47.384Z,10.30
2018-11-10T07:35:16.159Z,10.30
2018-11-10T07:37:45.020Z,10.30
2018-11-10T07:40:14.054Z,10.30
2018-11-10T07:42:42.854Z,10.30
2018-11-10T07:45:15.531Z,10.30
2018-11-10T07:47:45.007Z,10.30
2018-11-10T07:50:13.861Z,10.30
2018-11-10T07:52:43.015Z,10.40
2018-11-10T07:55:13.219Z,10.40
2018-11-10T07:57:42.294Z,10.40
2018-11-10T08:00:13.700Z,10.40
2018-11-10T08:02:42.691Z,10.40
2018-11-10T08:05:12.069Z,10.50
2018-11-10T08:07:41.707Z,10.50
2018-11-10T08:10:10.915Z,10.50
2018-11-10T08:12:39.696Z,10.50
2018-11-10T08:15:11.003Z,10.50
2018-11-10T08:17:40.219Z,10.60
2018-11-10T08:20:09.532Z,10.60
2018-11-10T08:22:38.376Z,10.60
2018-11-10T08:25:08.698Z,10.60
2018-11-10T08:27:37.596Z,10.70
2018-11-10T08:30:08.038Z,10.70
2018-11-10T08:32:36.930Z,10.20
2018-11-10T08:35:06.423Z,10.00
2018-11-10T08:37:35.239Z,9.80
2018-11-10T08:40:04.023Z,9.90
2018-11-10T08:42:32.776Z,9.70
2018-11-10T08:45:01.552Z,9.70
2018-11-10T08:47:30.327Z,9.70
2018-11-10T08:49:59.092Z,9.80
2018-11-10T08:52:27.866Z,9.80
2018-11-10T08:54:56.636Z,9.90
2018-11-10T08:57:25.479Z,10.10
2018-11-10T08:59:54.247Z,10.20
2018-11-10T09:02:23.039Z,10.40
2018-11-10T09:04:51.819Z,10.50
2018-11-10T09:07:20.744Z,10.50
2018-11-10T09:09:49.855Z,10.50
2018-11-10T09:12:18.567Z,10.60
2018-11-10T09:14:47.400Z,10.70
2018-11-10T09:17:16.230Z,10.80
2018-11-10T09:19:45.092Z,11.00
2018-11-10T09:22:13.935Z,11.10
2018-11-10T09:24:43.341Z,11.20
2018-11-10T09:27:12.140Z,11.40
2018-11-10T09:29:40.983Z,11.70
2018-11-10T09:32:09.801Z,11.90
2018-11-10T09:34:38.660Z,12.00
2018-11-10T09:37:07.431Z,12.10
2018-11-10T09:39:36.312Z,12.20
2018-11-10T09:42:06.045Z,12.40
2018-11-10T09:44:37.935Z,12.60
2018-11-10T09:47:06.897Z,13.00
2018-11-10T09:49:35.670Z,13.40
2018-11-10T09:52:04.493Z,13.50
2018-11-10T09:54:33.428Z,13.50
2018-11-10T09:57:02.596Z,13.40
2018-11-10T09:59:31.493Z,13.30
2018-11-10T10:02:00.711Z,13.40
2018-11-10T10:04:29.335Z,13.40
2018-11-10T10:06:58.127Z,13.40
2018-11-10T10:09:26.942Z,13.50
2018-11-10T10:11:55.824Z,13.60
2018-11-10T10:14:24.613Z,13.60
2018-11-10T10:16:53.447Z,13.80
2018-11-10T10:19:22.324Z,13.90
2018-11-10T10:21:51.965Z,14.00
2018-11-10T10:24:20.754Z,14.20
2018-11-10T10:26:49.790Z,14.50
2018-11-10T10:29:18.679Z,14.70
2018-11-10T10:31:47.520Z,15.00
2018-11-10T10:34:16.345Z,15.40
2018-11-10T10:36:45.192Z,15.60
2018-11-10T10:39:13.988Z,15.80
2018-11-10T10:41:42.788Z,16.00
2018-11-10T10:44:11.617Z,16.30
2018-11-10T10:46:40.527Z,16.60
2018-11-10T10:49:09.998Z,16.80
2018-11-10T10:51:38.752Z,17.00
2018-11-10T10:54:08.696Z,17.10
2018-11-10T10:56:37.869Z,17.30
2018-11-10T10:59:06.577Z,17.30
2018-11-10T11:01:40.692Z,17.40
2018-11-10T11:04:15.308Z,17.60
2018-11-10T11:06:44.090Z,17.60
2018-11-10T11:09:13.261Z,17.90
2018-11-10T11:11:42.354Z,18.10
2018-11-10T11:14:12.200Z,18.20
2018-11-10T11:16:41.968Z,18.40
2018-11-10T11:19:10.762Z,18.40
2018-11-10T11:21:39.626Z,18.30
2018-11-10T11:24:08.557Z,18.20
2018-11-10T11:26:37.524Z,18.30
2018-11-10T11:29:06.420Z,18.20
2018-11-10T11:31:35.173Z,18.20
2018-11-10T11:34:04.065Z,18.20
2018-11-10T11:36:32.977Z,18.20
2018-11-10T11:39:02.940Z,18.30
2018-11-10T11:41:32.078Z,18.40
2018-11-10T11:44:00.836Z,18.20
2018-11-10T11:46:30.436Z,18.30
2018-11-10T11:48:59.276Z,18.20
2018-11-10T11:51:28.198Z,18.30
2018-11-10T11:53:58.124Z,18.50
2018-11-10T11:56:26.929Z,18.40
2018-11-10T11:58:55.789Z,18.50
2018-11-10T12:01:25.427Z,18.70
2018-11-10T12:03:54.248Z,18.80
2018-11-10T12:06:23.403Z,19.10
2018-11-10T12:08:53.964Z,19.30
2018-11-10T12:11:22.805Z,19.60
2018-11-10T12:13:52.360Z,19.80
2018-11-10T12:16:27.194Z,20.10
2018-11-10T12:18:50.163Z,20.20
2018-11-10T12:21:19.048Z,20.20
2018-11-10T12:23:47.862Z,20.20
2018-11-10T12:26:16.668Z,20.20
2018-11-10T12:28:46.487Z,20.30
2018-11-10T12:31:15.280Z,20.00
2018-11-10T12:33:44.151Z,19.90
2018-11-10T12:36:12.949Z,19.80
2018-11-10T12:38:42.382Z,20.00
2018-11-10T12:41:11.199Z,19.90
2018-11-10T12:43:40.068Z,20.10
2018-11-10T12:46:09.841Z,19.70
2018-11-10T12:48:38.612Z,19.60
2018-11-10T12:51:07.423Z,19.70
2018-11-10T12:53:36.510Z,19.80
2018-11-10T12:56:06.107Z,19.80
2018-11-10T12:58:34.970Z,19.90
2018-11-10T13:01:05.060Z,20.10
2018-11-10T13:03:33.888Z,20.10
2018-11-10T13:06:03.415Z,19.90
2018-11-10T13:08:34.716Z,19.70
2018-11-10T13:11:03.761Z,19.50
2018-11-10T13:13:32.540Z,19.10
2018-11-10T13:16:01.318Z,18.90
2018-11-10T13:18:30.090Z,18.80
2018-11-10T13:20:58.933Z,18.90
2018-11-10T13:23:28.843Z,19.00
2018-11-10T13:25:57.627Z,19.10
2018-11-10T13:28:26.909Z,19.10
2018-11-10T13:30:55.824Z,19.40
2018-11-10T13:33:24.551Z,19.40
2018-11-10T13:35:53.409Z,19.40
2018-11-10T13:38:22.216Z,19.40
2018-11-10T13:40:51.363Z,19.40
2018-11-10T13:43:20.308Z,19.40
2018-11-10T13:45:49.065Z,19.30
2018-11-10T13:48:17.869Z,19.10
2018-11-10T13:50:46.823Z,19.00
2018-11-10T13:53:15.675Z,18.80
2018-11-10T13:55:44.601Z,18.70
2018-11-10T13:58:14.379Z,18.60
2018-11-10T14:00:43.198Z,18.30
2018-11-10T14:03:11.956Z,18.30
2018-11-10T14:05:40.943Z,18.20
2018-11-10T14:08:09.590Z,18.20
2018-11-10T14:10:38.343Z,18.00
2018-11-10T14:13:07.160Z,17.90
2018-11-10T14:15:35.900Z,17.70
2018-11-10T14:18:04.795Z,17.70
2018-11-10T14:20:35.125Z,17.60
2018-11-10T14:23:04.100Z,17.60
2018-11-10T14:25:32.871Z,17.50
2018-11-10T14:28:01.660Z,17.30
2018-11-10T14:30:30.428Z,17.10
2018-11-10T14:32:59.245Z,17.10
2018-11-10T14:35:28.052Z,17.00
2018-11-10T14:37:56.844Z,17.00
2018-11-10T14:40:25.650Z,16.80
2018-11-10T14:42:54.475Z,16.80
2018-11-10T14:45:23.240Z,16.60
2018-11-10T14:47:52.051Z,16.50
2018-11-10T14:50:21.726Z,16.50
2018-11-10T14:52:50.615Z,16.50
2018-11-10T14:55:19.343Z,16.50
2018-11-10T14:57:48.150Z,16.50
2018-11-10T15:00:19.544Z,16.40
2018-11-10T15:02:48.335Z,16.30
2018-11-10T15:05:17.438Z,16.30
2018-11-10T15:07:46.229Z,16.20
2018-11-10T15:10:16.120Z,16.20
2018-11-10T15:12:45.348Z,16.10
2018-11-10T15:15:15.323Z,16.00
2018-11-10T15:17:44.420Z,15.90
2018-11-10T15:20:14.475Z,15.70
2018-11-10T15:22:43.289Z,15.60
2018-11-10T15:25:13.667Z,15.50
2018-11-10T15:27:42.380Z,15.50
2018-11-10T15:30:13.785Z,15.50
2018-11-10T15:32:43.446Z,15.40
2018-11-10T15:35:13.840Z,15.20
2018-11-10T15:37:43.823Z,15.20
2018-11-10T15:40:13.655Z,15.00
2018-11-10T15:42:42.564Z,15.00
2018-11-10T15:45:12.475Z,14.90
2018-11-10T15:47:41.915Z,14.70
2018-11-10T15:50:11.984Z,14.70
2018-11-10T15:52:40.858Z,14.60
2018-11-10T15:55:10.594Z,14.50
2018-11-10T15:57:39.796Z,14.40
2018-11-10T16:00:10.864Z,14.30
2018-11-10T16:02:40.035Z,14.20
2018-11-10T16:05:09.679Z,14.10
2018-11-10T16:07:38.566Z,14.00
2018-11-10T16:10:07.637Z,14.00
2018-11-10T16:12:37.002Z,13.80
2018-11-10T16:15:07.851Z,13.70
2018-11-10T16:17:36.684Z,13.70
2018-11-10T16:20:07.883Z,13.60
2018-11-10T16:22:36.700Z,13.60
2018-11-10T16:25:06.378Z,13.60
2018-11-10T16:27:35.255Z,13.50
2018-11-10T16:30:04.197Z,13.50
2018-11-10T16:32:33.015Z,13.40
2018-11-10T16:35:01.873Z,13.50
2018-11-10T16:37:30.698Z,13.50
2018-11-10T16:39:59.507Z,13.50
2018-11-10T16:42:28.323Z,13.50
2018-11-10T16:44:57.262Z,13.50
2018-11-10T16:47:26.037Z,13.60
2018-11-10T16:49:55.157Z,13.60
2018-11-10T16:52:23.924Z,13.50
2018-11-10T16:54:52.756Z,13.60
2018-11-10T16:57:21.542Z,13.60
2018-11-10T16:59:50.409Z,13.50
2018-11-10T17:02:19.247Z,13.40
2018-11-10T17:04:47.968Z,13.50
2018-11-10T17:07:16.828Z,13.40
2018-11-10T17:09:45.741Z,13.40
2018-11-10T17:12:14.627Z,13.30
2018-11-10T17:14:43.471Z,13.30
2018-11-10T17:17:12.551Z,13.30
2018-11-10T17:19:41.413Z,13.30
2018-11-10T17:22:10.465Z,13.30
2018-11-10T17:24:40.154Z,13.30
2018-11-10T17:27:09.015Z,13.10
2018-11-10T17:29:37.756Z,13.10
2018-11-10T17:32:06.684Z,13.10
2018-11-10T17:34:36.588Z,13.20
2018-11-10T17:37:05.452Z,13.10
2018-11-10T17:39:34.445Z,13.20
2018-11-10T17:42:03.322Z,13.20
2018-11-10T17:44:32.149Z,13.20
2018-11-10T17:47:01.181Z,13.20
2018-11-10T17:49:32.198Z,13.10
2018-11-10T17:52:01.323Z,13.00
2018-11-10T17:54:30.398Z,13.00
2018-11-10T17:56:59.187Z,12.90
2018-11-10T17:59:28.023Z,12.90
2018-11-10T18:01:57.130Z,12.90
2018-11-10T18:04:25.814Z,12.80
2018-11-10T18:06:55.025Z,12.80
2018-11-10T18:09:23.820Z,12.90
2018-11-10T18:11:52.867Z,12.80
2018-11-10T18:14:21.903Z,12.80
2018-11-10T18:16:50.748Z,12.80
2018-11-10T18:19:19.519Z,12.80
2018-11-10T18:21:48.367Z,12.70
2018-11-10T18:24:17.612Z,12.70
2018-11-10T18:26:46.448Z,12.70
2018-11-10T18:29:15.390Z,12.60
2018-11-10T18:31:44.376Z,12.60
2018-11-10T18:34:13.252Z,12.60
2018-11-10T18:36:42.072Z,12.70
2018-11-10T18:39:11.102Z,12.60
2018-11-10T18:41:40.230Z,12.60
2018-11-10T18:44:09.447Z,12.60
2018-11-10T18:46:38.667Z,12.60
2018-11-10T18:49:07.456Z,12.50
2018-11-10T18:51:36.295Z,12.60
2018-11-10T18:54:05.287Z,12.50
2018-11-10T18:56:34.104Z,12.50
2018-11-10T18:59:02.914Z,12.50
2018-11-10T19:01:31.741Z,12.40
2018-11-10T19:04:00.603Z,12.40
2018-11-10T19:06:29.484Z,12.40
2018-11-10T19:08:58.172Z,12.40
2018-11-10T19:11:26.991Z,12.40
2018-11-10T19:13:55.759Z,12.40
2018-11-10T19:16:24.701Z,12.40
2018-11-10T19:18:53.711Z,12.40
2018-11-10T19:21:22.651Z,12.30
2018-11-10T19:23:51.632Z,12.30
2018-11-10T19:26:20.780Z,12.30
2018-11-10T19:28:49.676Z,12.20
2018-11-10T19:31:18.590Z,12.20
2018-11-10T19:33:47.431Z,12.20
2018-11-10T19:36:16.352Z,12.20
2018-11-10T19:38:45.334Z,12.20
2018-11-10T19:41:14.079Z,12.10
2018-11-10T19:43:42.903Z,12.20
2018-11-10T19:46:11.883Z,12.20
2018-11-10T19:48:40.702Z,12.20
2018-11-10T19:51:14.950Z,12.20
2018-11-10T19:53:44.077Z,12.20
2018-11-10T19:56:13.200Z,12.20
2018-11-10T19:58:42.060Z,12.20
2018-11-10T20:01:11.504Z,12.20
2018-11-10T20:03:40.449Z,12.20
2018-11-10T20:06:09.308Z,12.20
2018-11-10T20:08:40.264Z,12.20
2018-11-10T20:11:09.120Z,12.20
2018-11-10T20:13:37.940Z,12.10
2018-11-10T20:16:06.730Z,12.10
2018-11-10T20:18:35.563Z,12.10
2018-11-10T20:21:04.452Z,12.10
2018-11-10T20:23:33.315Z,12.00
2018-11-10T20:26:02.195Z,12.00
2018-11-10T20:28:31.104Z,12.00
2018-11-10T20:30:59.976Z,12.00
2018-11-10T20:33:28.839Z,12.00
2018-11-10T20:35:57.646Z,12.00
2018-11-10T20:38:26.552Z,12.00
2018-11-10T20:40:55.406Z,11.90
2018-11-10T20:43:24.254Z,12.00
2018-11-10T20:45:53.184Z,11.90
2018-11-10T20:48:22.027Z,11.80
2018-11-10T20:50:51.399Z,11.80
2018-11-10T20:53:20.284Z,11.80
2018-11-10T20:55:49.228Z,11.80
2018-11-10T20:58:18.069Z,11.80
2018-11-10T21:00:47.374Z,11.70
2018-11-10T21:03:16.560Z,11.60
2018-11-10T21:05:45.546Z,11.60
2018-11-10T21:08:14.421Z,11.60
2018-11-10T21:10:43.291Z,11.70
2018-11-10T21:13:12.059Z,11.70
2018-11-10T21:15:40.854Z,11.70
2018-11-10T21:18:09.872Z,11.80
2018-11-10T21:20:38.725Z,11.70
2018-11-10T21:23:07.668Z,11.70
2018-11-10T21:25:36.471Z,11.80
2018-11-10T21:28:07.382Z,11.80
2018-11-10T21:30:36.231Z,11.80
2018-11-10T21:33:05.099Z,11.80
2018-11-10T21:35:33.938Z,11.70
2018-11-10T21:38:02.940Z,11.70
2018-11-10T21:40:31.724Z,11.70
2018-11-10T21:43:00.620Z,11.80
2018-11-10T21:45:29.424Z,11.90
2018-11-10T21:47:58.210Z,11.90
2018-11-10T21:50:27.020Z,11.90
2018-11-10T21:52:55.793Z,11.90
2018-11-10T21:55:24.689Z,11.80
2018-11-10T21:57:53.484Z,11.80
2018-11-10T22:00:22.879Z,11.80
2018-11-10T22:02:51.960Z,11.80
2018-11-10T22:05:20.992Z,11.80
2018-11-10T22:07:49.784Z,11.80
2018-11-10T22:10:19.435Z,11.80
2018-11-10T22:12:48.277Z,11.80
2018-11-10T22:15:19.920Z,11.80
2018-11-10T22:17:48.986Z,11.70
2018-11-10T22:20:19.558Z,11.70
2018-11-10T22:22:48.576Z,11.70
2018-11-10T22:25:17.840Z,11.60
2018-11-10T22:27:48.285Z,11.70
2018-11-10T22:30:18.379Z,11.70
2018-11-10T22:32:47.902Z,11.70
2018-11-10T22:35:16.796Z,11.70
2018-11-10T22:37:46.700Z,11.60
2018-11-10T22:40:18.658Z,11.60
2018-11-10T22:42:47.749Z,11.60
2018-11-10T22:45:18.910Z,11.60
2018-11-10T22:47:48.104Z,11.60
2018-11-10T22:50:18.305Z,11.60
2018-11-10T22:52:47.256Z,11.60
2018-11-10T22:55:16.207Z,11.70
2018-11-10T22:57:45.163Z,11.60
2018-11-10T23:00:16.416Z,11.60
2018-11-10T23:02:47.439Z,11.60
2018-11-10T23:05:16.765Z,11.60
2018-11-10T23:07:45.607Z,11.60
2018-11-10T23:10:14.976Z,11.50
2018-11-10T23:12:44.963Z,11.60
2018-11-10T23:15:14.177Z,11.50
2018-11-10T23:17:43.260Z,11.50
2018-11-10T23:20:13.990Z,11.40
2018-11-10T23:22:42.831Z,11.40
2018-11-10T23:25:15.117Z,11.40
2018-11-10T23:27:44.001Z,11.40
2018-11-10T23:30:15.017Z,11.40
2018-11-10T23:32:44.580Z,11.40
2018-11-10T23:35:13.509Z,11.40
2018-11-10T23:37:42.344Z,11.30
2018-11-10T23:40:12.748Z,11.30
2018-11-10T23:42:42.004Z,11.30
2018-11-10T23:45:11.326Z,11.20
2018-11-10T23:47:40.343Z,11.20
2018-11-10T23:50:11.381Z,11.20
2018-11-10T23:52:40.484Z,11.20
2018-11-10T23:55:10.318Z,11.20
2018-11-10T23:57:39.196Z,11.20
